Flight Track Log - Related Links

Times and Time Zones

All times are in EDT time to prevent confusion due to time zone crossing. See the THU850 flight status page for this flight to view local times or setup timezone preferences in your user account.

Time Position Orientation Groundspeed Altitude Reporting Facility
EDT Latitude Longitude Course Direction KTS MPH feet Rate Location/Type
Wed 10:51:04 AM 43.1667 -79.9000 216° Southwest 20 23 800  Level Toronto Center
Wed 10:52:04 AM 43.1333 -79.9333 216° Southwest 160 184 1,500 950 Climbing Toronto Center
Wed 10:53:04 AM 43.1000 -80.0000 236° Southwest 200 230 2,700 1,200 Climbing Toronto Center
Wed 10:54:04 AM 43.0833 -80.0667 251° West 210 242 3,900 1,250 Climbing Toronto Center
Wed 10:55:04 AM 43.0833 -80.1500 270° West 200 230 5,200 1,250 Climbing Toronto Center
Wed 10:56:04 AM 43.1000 -80.2333 285° West 210 242 6,400 1,250 Climbing Toronto Center
Wed 10:57:04 AM 43.1167 -80.3000 289° West 210 242 7,700 1,250 Climbing Toronto Center
Wed 10:58:04 AM 43.1667 -80.3333 334° Northwest 210 242 8,900 1,250 Climbing Toronto Center
Wed 10:59:04 AM 43.2167 -80.3833 324° Northwest 210 242 10,200 1,200 Climbing Toronto Center
Wed 11:00:04 AM 43.2667 -80.4333 324° Northwest 220 253 11,300 1,100 Climbing Toronto Center
Wed 11:01:04 AM 43.3167 -80.4833 324° Northwest 220 253 12,400 1,000 Climbing Toronto Center
Wed 11:02:04 AM 43.3667 -80.5333 324° Northwest 220 253 13,300 850 Climbing Toronto Center
Wed 11:03:04 AM 43.4167 -80.5667 334° Northwest 220 253 14,100 800 Climbing Toronto Center
Wed 11:04:04 AM 43.4833 -80.6000 340° North 220 253 14,900 800 Climbing Toronto Center
Wed 11:05:04 AM 43.5333 -80.6500 324° Northwest 230 265 15,700 800 Climbing Toronto Center
Wed 11:06:04 AM 43.5833 -80.6833 334° Northwest 230 265 16,500 800 Climbing Toronto Center
Wed 11:07:04 AM 43.6500 -80.7333 332° Northwest 220 253 17,300 700 Climbing Toronto Center
Wed 11:08:04 AM 43.7000 -80.7833 324° Northwest 220 253 17,900 450 Climbing Toronto Center
Wed 11:09:04 AM 43.7333 -80.8333 313° West 220 253 18,200 450 Climbing Toronto Center
Wed 11:10:04 AM 43.7833 -80.8500 346° North 220 253 18,800 600 Climbing Toronto Center
Wed 11:11:04 AM 43.8333 -80.9333 310° West 220 253 19,400 550 Climbing Toronto Center
Wed 11:12:04 AM 43.8833 -80.9667 334° Northwest 220 253 19,900 500 Climbing Toronto Center
Wed 11:13:04 AM 43.9333 -81.0500 310° West 220 253 20,400 450 Climbing Toronto Center
Wed 11:14:04 AM 43.9667 -81.1000 313° West 220 253 20,800 400 Climbing Toronto Center
Wed 11:15:04 AM 44.0167 -81.1333 334° Northwest 220 253 21,200 400 Climbing Toronto Center
Wed 11:16:04 AM 44.0667 -81.2167 310° West 220 253 21,600 200 Climbing Toronto Center
Wed 11:18:00 AM 44.1665 -81.3289 318° Northwest  Level FlightAware Approximate
Wed 11:19:04 AM 44.2000 -81.4000 318° Northwest 240 276 22,000  Level Toronto Center
Wed 11:20:04 AM 44.2500 -81.4667 316° Northwest 240 276 22,000  Level Toronto Center
Wed 11:21:04 AM 44.3000 -81.5500 310° West 250 288 22,000  Level Toronto Center
Wed 11:22:04 AM 44.3500 -81.6167 316° Northwest 250 288 22,000 -50 Level Toronto Center
Wed 11:23:04 AM 44.4000 -81.6833 316° Northwest 250 288 21,900  Descending Toronto Center
Wed 11:24:04 AM 44.4333 -81.7500 305° West 250 288 22,000 50 Climbing Toronto Center
Wed 11:25:04 AM 44.4833 -81.8500 305° West 240 276 22,000  Level Toronto Center
Wed 11:26:04 AM 44.5167 -81.9167 305° West 250 288 22,000  Level Toronto Center
Wed 11:27:04 AM 44.5500 -82.0000 299° West 250 288 22,000  Level Toronto Center
Wed 11:28:04 AM 44.6000 -82.0667 316° Northwest 250 288 22,000  Level Toronto Center
Wed 11:29:04 AM 44.6500 -82.1333 317° Northwest 250 288 22,000  Level Toronto Center
Wed 11:30:04 AM 44.6833 -82.2167 299° West 250 288 22,000  Level Toronto Center
Wed 11:31:04 AM 44.7333 -82.3167 305° West 250 288 22,000  Level Toronto Center
Wed 11:32:04 AM 44.7833 -82.3500 335° Northwest 250 288 22,000  Level Toronto Center
Wed 11:33:04 AM 44.8333 -82.4500 305° West 260 299 22,000  Level Toronto Center
Wed 11:34:04 AM 44.8833 -82.5333 310° West 250 288 22,000  Level Toronto Center
Wed 11:35:04 AM 44.9167 -82.6000 305° West 250 288 22,000  Level Toronto Center
Wed 11:36:04 AM 44.9667 -82.6667 317° Northwest 250 288 22,000  Level Toronto Center
Wed 11:37:09 AM 45.0125 -82.7514 307° West 250 288 22,000  Level Minneapolis Center
Wed 11:38:11 AM 45.0678 -82.8428 311° West 253 291 22,000 -48 Level Minneapolis Center
Wed 11:39:13 AM 45.1103 -82.9214 307° West 254 292 21,900  Descending Minneapolis Center
Wed 11:40:04 AM 45.1333 -82.9833 298° West 250 288 22,000 54 Climbing Toronto Center
Wed 11:41:04 AM 45.1833 -83.0667 310° West 250 288 22,000  Level Toronto Center
Wed 11:42:04 AM 45.2333 -83.1333 317° Northwest 250 288 22,000  Level Toronto Center
Wed 11:43:04 AM 45.2667 -83.2167 300° West 250 288 22,000  Level Toronto Center
Wed 11:44:04 AM 45.3000 -83.2833 305° West 250 288 22,000  Level Toronto Center
Wed 11:45:04 AM 45.3500 -83.3500 317° Northwest 250 288 22,000  Level Toronto Center
Wed 11:46:04 AM 45.3833 -83.4333 300° West 250 288 22,000 50 Level Toronto Center
Wed 11:47:04 AM 45.4333 -83.5333 305° West 250 288 22,100  Climbing Toronto Center
Wed 11:48:04 AM 45.4833 -83.6000 317° Northwest 250 288 22,000 -50 Descending Toronto Center
Wed 11:49:04 AM 45.5333 -83.6833 311° West 250 288 22,000  Level Toronto Center
Wed 11:49:34 AM 45.5567 -83.7181 314° West 249 287 22,000  Level Minneapolis Center
Wed 11:50:36 AM 45.5997 -83.7953 309° West 250 288 22,000  Level Minneapolis Center
Wed 11:51:38 AM 45.6433 -83.8700 310° West 249 287 22,000  Level Minneapolis Center
Wed 11:52:40 AM 45.6883 -83.9456 310° West 248 285 22,000  Level Minneapolis Center
Wed 11:53:42 AM 45.7306 -84.0239 308° West 249 287 22,000  Level Minneapolis Center
Wed 11:54:44 AM 45.7789 -84.1169 307° West 248 285 22,000  Level Minneapolis Center
Wed 11:55:46 AM 45.8192 -84.1964 306° West 247 284 22,000  Level Minneapolis Center
Wed 11:56:48 AM 45.8603 -84.2758 307° West 247 284 22,000  Level Minneapolis Center
Wed 11:57:51 AM 45.9011 -84.3519 308° West 246 283 22,000  Level Minneapolis Center
Wed 11:58:53 AM 45.9442 -84.4292 309° West 246 283 22,000  Level Minneapolis Center
Wed 12:00:04 PM 45.9833 -84.5333 298° West 250 288 22,000  Level Toronto Center
Wed 12:01:04 PM 46.0333 -84.6000 317° Northwest 250 288 22,000  Level Toronto Center
Wed 12:02:04 PM 46.0667 -84.6833 300° West 240 276 22,000  Level Toronto Center
Wed 12:03:04 PM 46.1167 -84.7500 317° Northwest 240 276 22,000  Level Toronto Center
Wed 12:04:04 PM 46.1500 -84.8333 300° West 240 276 22,000  Level Toronto Center
Wed 12:05:04 PM 46.2000 -84.9167 311° West 240 276 22,000  Level Toronto Center
Wed 12:06:04 PM 46.2500 -84.9833 317° Northwest 240 276 22,000  Level Toronto Center
Wed 12:07:04 PM 46.2667 -85.0667 286° West 240 276 22,000  Level Toronto Center
Wed 12:08:04 PM 46.3167 -85.1333 317° Northwest 230 265 22,000  Level Toronto Center
Wed 12:09:04 PM 46.3500 -85.2167 300° West 230 265 22,000 -250 Level Toronto Center
Wed 12:10:04 PM 46.4000 -85.2833 317° Northwest 240 276 21,500 -550 Descending Toronto Center
Wed 12:11:04 PM 46.4333 -85.3667 300° West 260 299 20,900 -650 Descending Toronto Center
Wed 12:12:04 PM 46.4833 -85.4667 306° West 260 299 20,200 -450 Descending Toronto Center
Wed 12:13:04 PM 46.5167 -85.5500 300° West 260 299 20,000 -100 Descending Toronto Center
Wed 12:14:04 PM 46.5667 -85.6167 318° Northwest 250 288 20,000  Level Toronto Center
Wed 12:15:04 PM 46.6000 -85.7000 300° West 240 276 20,000  Level Toronto Center
Wed 12:16:04 PM 46.6333 -85.7833 300° West 240 276 20,000  Level Toronto Center
Wed 12:17:04 PM 46.6833 -85.8500 318° Northwest 240 276 20,000  Level Toronto Center
Wed 12:18:04 PM 46.7333 -85.9333 311° West 240 276 20,000  Level Toronto Center
Wed 12:19:04 PM 46.7833 -86.0167 311° West 240 276 20,000  Level Toronto Center
Wed 12:20:04 PM 46.8000 -86.0833 290° West 240 276 20,000  Level Toronto Center
Wed 12:20:36 PM 46.8339 -86.1353 314° West 244 281 20,000  Level Minneapolis Center
Wed 12:21:38 PM 46.8736 -86.2128 307° West 243 280 20,000  Level Minneapolis Center
Wed 12:22:40 PM 46.9164 -86.2908 309° West 246 283 20,000  Level Minneapolis Center
Wed 12:23:42 PM 46.9581 -86.3692 308° West 246 283 20,000  Level Minneapolis Center
Wed 12:24:44 PM 47.0081 -86.4622 308° West 243 280 20,000  Level Minneapolis Center
Wed 12:25:46 PM 47.0456 -86.5428 304° West 242 278 20,000  Level Minneapolis Center
Wed 12:27:04 PM 47.0833 -86.6667 294° West 240 276 20,000  Level Toronto Center
Wed 12:28:04 PM 47.1333 -86.7500 311° West 250 288 20,000  Level Toronto Center
Wed 12:29:59 PM 47.2000 -86.8500 314° West 250 288 20,000  Level Winnipeg Center
Wed 12:30:59 PM 47.2333 -86.9167 306° West 240 276 20,000  Level Winnipeg Center
Wed 12:31:59 PM 47.2667 -87.0000 301° West 250 288 20,000  Level Winnipeg Center
Wed 12:32:59 PM 47.3167 -87.1000 306° West 250 288 20,000  Level Winnipeg Center
Wed 12:33:59 PM 47.3500 -87.1667 306° West 240 276 20,000  Level Winnipeg Center
Wed 12:34:59 PM 47.4000 -87.2500 312° West 240 276 20,000  Level Winnipeg Center
Wed 12:35:59 PM 47.4333 -87.3167 306° West 240 276 20,000  Level Winnipeg Center
Wed 12:36:59 PM 47.4667 -87.4167 296° West 240 276 20,000 -50 Level Winnipeg Center
Wed 12:37:59 PM 47.5000 -87.5000 301° West 240 276 19,900  Descending Winnipeg Center
Wed 12:38:59 PM 47.5333 -87.5667 307° West 240 276 20,000 50 Climbing Winnipeg Center
Wed 12:39:59 PM 47.5833 -87.6667 307° West 240 276 20,000  Level Winnipeg Center
Wed 12:40:59 PM 47.6000 -87.7333 290° West 240 276 20,000  Level Winnipeg Center
Wed 12:41:59 PM 47.6500 -87.8333 307° West 240 276 20,000  Level Winnipeg Center
Wed 12:42:59 PM 47.6833 -87.9000 307° West 240 276 20,000 50 Level Winnipeg Center
Wed 12:43:59 PM 47.7167 -87.9833 301° West 240 276 20,100  Climbing Winnipeg Center
Wed 12:44:59 PM 47.7667 -88.0500 318° Northwest 240 276 20,000  Descending Winnipeg Center
Wed 12:45:59 PM 47.8167 -88.1167 318° Northwest 240 276 20,100 -150 Climbing Winnipeg Center
Wed 12:46:59 PM 47.8833 -88.1333 350° North 250 288 19,700 -500 Descending Winnipeg Center
Wed 12:47:59 PM 47.9500 -88.0667 34° Northeast 290 334 19,100 -350 Descending Winnipeg Center
Wed 12:48:59 PM 47.9500 -87.9167 90° East 330 380 19,000  Descending Winnipeg Center
Wed 12:49:59 PM 47.9667 -87.8000 78° East 340 391 19,100  Climbing Winnipeg Center
Wed 12:50:59 PM 47.9667 -87.6500 90° East 330 380 19,000 -50 Descending Winnipeg Center
Wed 12:51:59 PM 47.9667 -87.5167 90° East 340 391 19,000 50 Level Winnipeg Center
Wed 12:52:59 PM 47.9500 -87.3667 99° East 340 391 19,100 50 Climbing Winnipeg Center
Wed 12:53:59 PM 47.9667 -87.2167 81° East 340 391 19,100 -50 Level Winnipeg Center
Wed 12:54:59 PM 47.9667 -87.0833 90° East 350 403 19,000 -100 Descending Winnipeg Center
Wed 12:55:59 PM 47.9667 -86.9333 90° East 340 391 18,900  Descending Winnipeg Center
Wed 12:56:59 PM 47.9500 -86.7833 99° East 340 391 19,000 50 Climbing Winnipeg Center
Wed 12:57:59 PM 47.9500 -86.6333 90° East 340 391 19,000  Level Winnipeg Center
Wed 12:58:59 PM 47.9667 -86.5167 78° East 340 391 19,000  Level Winnipeg Center
Wed 12:59:59 PM 47.9667 -86.3667 90° East 350 403 19,000  Level Winnipeg Center
Wed 01:00:59 PM 47.9500 -86.2333 101° East 340 391 19,000  Level Winnipeg Center
Wed 01:01:59 PM 47.9500 -86.0833 90° East 340 391 19,000 -600 Level Winnipeg Center
Wed 01:02:59 PM 47.9500 -85.9333 90° East 350 403 17,800 -1,400 Descending Winnipeg Center
Wed 01:03:59 PM 47.9500 -85.7833 90° East 370 426 16,200 -1,600 Descending Winnipeg Center
Wed 01:04:59 PM 47.9667 -85.6333 81° East 360 414 14,600 -1,650 Descending Winnipeg Center
Wed 01:05:59 PM 47.9500 -85.4833 99° East 350 403 12,900 -1,700 Descending Winnipeg Center
Wed 01:06:59 PM 47.9500 -85.3667 90° East 340 391 11,200 -1,350 Descending Winnipeg Center
Wed 01:07:59 PM 47.9500 -85.2167 90° East 340 391 10,200 -1,000 Descending Winnipeg Center
Wed 01:09:00 PM 47.9645 -85.3363 280° West  Level Estimated
Wed 01:16:00 PM 48.0403 -85.9818 280° West  Level Estimated
Wed 01:17:00 PM 48.0508 -86.0742 280° West  Level Estimated
Wed 01:18:00 PM 48.0613 -86.1666 280° West  Level Estimated
Wed 01:19:00 PM 48.0716 -86.2591 280° West  Level Estimated
Wed 01:20:00 PM 48.0820 -86.3515 280° West  Level Estimated
Wed 01:21:00 PM 48.0922 -86.4441 279° West  Level Estimated
Wed 01:22:00 PM 48.1023 -86.5366 279° West  Level Estimated
Wed 01:23:00 PM 48.1124 -86.6292 279° West  Level Estimated
Wed 01:24:00 PM 48.1225 -86.7218 279° West  Level Estimated
Wed 01:25:00 PM 48.1324 -86.8145 279° West  Level Estimated
Wed 01:26:00 PM 48.1423 -86.9072 279° West  Level Estimated
Wed 01:27:00 PM 48.1520 -86.9999 279° West  Level Estimated
Wed 01:28:00 PM 48.1618 -87.0927 279° West  Level Estimated
Wed 01:29:00 PM 48.1714 -87.1855 279° West  Level Estimated
Wed 01:30:00 PM 48.1810 -87.2784 279° West  Level Estimated
Wed 01:31:00 PM 48.1904 -87.3712 279° West  Level Estimated
Wed 01:32:00 PM 48.1999 -87.4642 279° West  Level Estimated
Wed 01:33:00 PM 48.2092 -87.5571 279° West  Level Estimated
Wed 01:34:00 PM 48.2185 -87.6501 279° West  Level Estimated
Wed 01:35:00 PM 48.2277 -87.7431 278° West  Level Estimated
Wed 01:36:00 PM 48.2368 -87.8361 278° West  Level Estimated
Wed 01:37:00 PM 48.2458 -87.9292 278° West  Level Estimated
Wed 01:38:00 PM 48.2548 -88.0223 278° West  Level Estimated
Wed 01:39:00 PM 48.2637 -88.1155 278° West  Level Estimated
Wed 01:40:00 PM 48.2725 -88.2086 278° West  Level Estimated
Wed 01:41:00 PM 48.2812 -88.3018 278° West  Level Estimated
Wed 01:42:00 PM 48.2899 -88.3951 278° West  Level Estimated
Wed 01:43:00 PM 48.2985 -88.4883 278° West  Level Estimated
Wed 01:44:00 PM 48.3070 -88.5816 278° West  Level Estimated
Wed 01:45:00 PM 48.3154 -88.6750 278° West  Level Estimated
Wed 01:46:00 PM 48.3238 -88.7683 278° West  Level Estimated
Wed 01:47:00 PM 48.3321 -88.8617 278° West  Level Estimated
Wed 01:48:00 PM 48.3403 -88.9551 278° West  Level Estimated

Login

Don't have an account? Register now (free) for customized features, flight alerts, and more!